Tropical Cyclones
[Index]
Main Index Home Page Stock Weather Photos Extreme Storms Discussion Storm News and Storm Chasing Reports Tropical Cyclones / Hurricanes / Typhoons Weather Data and Links Wild Fires / Bushfires Weather Observation Techniques Weather Picture Catalogue Tornado Pictures and Reports Stock Video Footage and DVDs for sale
Season 1987-1988 Tropical Cyclone AGI Track Map
Season 1987-1988 Summaries: [BoM-AU] [JTWC-AU] [JTWC-SIO] [JTWC-SPAC] [JTWC-SH]
<<- Previous TC | BoM 1987-1988 Season | Next TC ->>

click for intensity scale information  Lat/long Grid: Show Hide

 Date Labels: Show Hide

Bureau of Meteorology Tropical Cyclone Data

Name: AGI
Number: 702 / 198788_01

08 Jan 1988 00:00 UTC to 14 Jan 1988 06:00 UTC

    date/time    lat    long    hPa   cat  kts
1988-01-08 00   15.0   157.0   1001                     
1988-01-08 06   15.0   156.8   1001                     
1988-01-08 12   15.0   156.5   1001                     
1988-01-08 18   14.8   155.6   1001                     
1988-01-09 00   13.8   155.0   1002                     
1988-01-09 06   13.3   155.0   1000                     
1988-01-09 12   13.0   155.0   1000                     
1988-01-09 18   12.8   154.9   1000                     
1988-01-10 00   12.5   154.7   1000                     
1988-01-10 06   12.0   154.5    999                     
1988-01-10 12   10.9   154.0    996                     
1988-01-10 18   10.7   154.2    994    1                
1988-01-11 00   10.6   154.0    994    1                
1988-01-11 06   10.6   153.8    994    1                
1988-01-11 12   10.6   153.6    993    1                
1988-01-11 18   10.7   153.4    990    1                
1988-01-12 00   10.9   153.6    988    1                
1988-01-12 06   11.3   153.7    986    1                
1988-01-12 12   11.6   153.6    982    2                
1988-01-12 18   12.3   154.3    980    2                
1988-01-13 00   13.4   155.0    980    2                
1988-01-13 06   14.7   155.5    980    2                
1988-01-13 12   15.8   156.4    980    2                
1988-01-13 18   16.9   157.7    982    2                
1988-01-14 00   18.7   159.4    993    1                
1988-01-14 06   19.5   162.0    995    1                
Winds are 10-min average.

Tropical cyclone tracks developed by Michael Bath using data from the Bureau of Meteorology and Google Maps.


[Australian Severe Weather index] [Copyright Notice] [Email Contacts] [Search This Site] [Privacy Policy]
Document: tropical_cyclone_agi.htm Updated: 30 May 2013